Flight Track Log - Related Links

Times and Time Zones

All times are in EDT time to prevent confusion due to time zone crossing. See the SWA2236 flight status page for this flight to view local times or setup timezone preferences in your user account.

Time Position Orientation Groundspeed Altitude Reporting Facility
EDT Latitude Longitude Course Direction KTS MPH feet Rate Location/Type
Sun 07:51:04 PM 30.5050 -81.6703 49° Northeast 159 183 700  Level Jacksonville Center
Sun 07:52:23 PM 30.5483 -81.6117 49° Northeast 233 268 3,600 2,451 Climbing Jacksonville Center
Sun 07:53:26 PM 30.6061 -81.5553 40° Northeast 263 303 6,500 3,122 Climbing Jacksonville Center
Sun 07:54:26 PM 30.6639 -81.4942 42° Northeast 268 308 10,000 3,050 Climbing Jacksonville Center
Sun 07:55:26 PM 30.7386 -81.4497 27° Northeast 280 322 12,600 2,600 Climbing Jacksonville Center
Sun 07:56:26 PM 30.8386 -81.4361 North 316 364 15,200 2,650 Climbing Jacksonville Center
Sun 07:57:26 PM 30.9450 -81.4150 10° North 351 404 17,900 2,650 Climbing Jacksonville Center
Sun 07:58:26 PM 31.0553 -81.3964 North 383 441 20,500 2,521 Climbing Jacksonville Center
Sun 07:59:25 PM 31.1678 -81.3750 North 404 465 22,900 2,250 Climbing Jacksonville Center
Sun 08:00:26 PM 31.2844 -81.3561 North 417 480 25,000 1,983 Climbing Jacksonville Center
Sun 08:01:26 PM 31.3908 -81.3350 10° North 428 493 26,900 1,850 Climbing Jacksonville Center
Sun 08:02:26 PM 31.5261 -81.3108 North 440 506 28,700 1,600 Climbing Jacksonville Center
Sun 08:03:26 PM 31.6511 -81.2892 North 446 513 30,100 1,700 Climbing Jacksonville Center
Sun 08:04:26 PM 31.7636 -81.2675 North 446 513 32,100 2,050 Climbing Jacksonville Center
Sun 08:05:26 PM 31.8989 -81.2456 North 446 513 34,200 2,100 Climbing Jacksonville Center
Sun 08:06:26 PM 32.0156 -81.2217 10° North 440 506 36,300 1,800 Climbing Jacksonville Center
Sun 08:07:26 PM 32.1300 -81.1900 13° North 425 489 37,800 1,200 Climbing Jacksonville Center
Sun 08:08:26 PM 32.2186 -81.1072 38° Northeast 398 458 38,700 600 Climbing Jacksonville Center
Sun 08:09:26 PM 32.3053 -81.0269 38° Northeast 416 479 39,000 150 Climbing Jacksonville Center
Sun 08:10:26 PM 32.3978 -80.9342 40° Northeast 409 471 39,000  Level Jacksonville Center
Sun 08:11:26 PM 32.4839 -80.8461 41° Northeast 404 465 39,000  Level Jacksonville Center
Sun 08:12:26 PM 32.5681 -80.7603 41° Northeast 407 468 39,000  Level Jacksonville Center
Sun 08:13:26 PM 32.6564 -80.6744 39° Northeast 402 463 39,000  Level Jacksonville Center
Sun 08:14:26 PM 32.7406 -80.5883 41° Northeast 402 463 39,000  Level Jacksonville Center
Sun 08:15:26 PM 32.8286 -80.5019 39° Northeast 402 463 39,000  Level Jacksonville Center
Sun 08:16:26 PM 32.9128 -80.4181 40° Northeast 397 457 39,000  Level Jacksonville Center
Sun 08:17:26 PM 33.0006 -80.3292 40° Northeast 404 465 39,000  Level Jacksonville Center
Sun 08:18:26 PM 33.0803 -80.2450 41° Northeast 398 458 39,000  Level Jacksonville Center
Sun 08:19:26 PM 33.1725 -80.1578 38° Northeast 404 465 39,000  Level Jacksonville Center
Sun 08:20:25 PM 33.2519 -80.0758 41° Northeast 412 474 39,000  Level Jacksonville Center
Sun 08:21:25 PM 33.3356 -79.9911 40° Northeast 401 461 39,000  Level Jacksonville Center
Sun 08:22:26 PM 33.4211 -79.9039 40° Northeast 401 461 39,000  Level Jacksonville Center
Sun 08:23:25 PM 33.5067 -79.8164 40° Northeast 401 461 39,000  Level Jacksonville Center
Sun 08:24:25 PM 33.5944 -79.7358 37° Northeast 401 461 39,000  Level Jacksonville Center
Sun 08:25:25 PM 33.6972 -79.6747 26° Northeast 401 461 39,000  Level Jacksonville Center
Sun 08:26:25 PM 33.8022 -79.6161 25° Northeast 401 461 39,000  Level Jacksonville Center
Sun 08:27:25 PM 33.9050 -79.5547 26° Northeast 401 461 39,000  Level Jacksonville Center
Sun 08:28:26 PM 34.0056 -79.4931 27° Northeast 401 461 39,000  Level Jacksonville Center
Sun 08:30:31 PM 34.2186 -79.3692 26° Northeast 382 440 39,000  Level Washington Center
Sun 08:31:32 PM 34.3228 -79.3061 27° Northeast 395 455 39,000  Level Washington Center
Sun 08:32:32 PM 34.4206 -79.2475 26° Northeast 395 455 39,000  Level Washington Center
Sun 08:33:34 PM 34.5228 -79.1839 27° Northeast 395 455 39,000  Level Washington Center
Sun 08:34:31 PM 34.6225 -79.1253 26° Northeast 395 455 39,000  Level Washington Center
Sun 08:35:33 PM 34.7244 -79.0639 26° Northeast 395 455 39,000  Level Washington Center
Sun 08:36:33 PM 34.8242 -79.0050 26° Northeast 395 455 39,000 -403 Level Washington Center
Sun 08:37:32 PM 34.9239 -78.9433 27° Northeast 395 455 38,200 -850 Descending Washington Center
Sun 08:38:33 PM 35.0258 -78.8817 26° Northeast 395 455 37,300 -958 Descending Washington Center
Sun 08:39:31 PM 35.1275 -78.8222 26° Northeast 400 460 36,300 -950 Descending Washington Center
Sun 08:40:33 PM 35.2317 -78.7578 27° Northeast 400 460 35,400 -639 Descending Washington Center
Sun 08:41:33 PM 35.3333 -78.6956 27° Northeast 405 466 35,000 -610 Descending Washington Center
Sun 08:42:31 PM 35.4289 -78.6356 27° Northeast 417 480 34,200 -908 Descending Washington Center
Sun 08:43:32 PM 35.5392 -78.5658 27° Northeast 412 474 33,200 -885 Descending Washington Center
Sun 08:44:33 PM 35.6428 -78.5083 24° Northeast 412 474 32,400 -908 Descending Washington Center
Sun 08:45:31 PM 35.7425 -78.4428 28° Northeast 420 483 31,400 -1,008 Descending Washington Center
Sun 08:46:32 PM 35.8461 -78.3800 26° Northeast 415 478 30,400 -984 Descending Washington Center
Sun 08:47:33 PM 35.9478 -78.3169 27° Northeast 415 478 29,400 -689 Descending Washington Center
Sun 08:48:34 PM 36.0472 -78.2508 28° Northeast 409 471 29,000 -203 Descending Washington Center
Sun 08:49:31 PM 36.1489 -78.1900 26° Northeast 409 471 29,000  Level Washington Center
Sun 08:50:33 PM 36.2503 -78.1264 27° Northeast 409 471 29,000  Level Washington Center
Sun 08:51:33 PM 36.3539 -78.0600 27° Northeast 409 471 29,000  Level Washington Center
Sun 08:52:31 PM 36.4617 -77.9911 27° Northeast 409 471 29,000  Level Washington Center
Sun 08:53:32 PM 36.5653 -77.9272 26° Northeast 409 471 29,000 -148 Level Washington Center
Sun 08:54:33 PM 36.6581 -77.8678 27° Northeast 415 478 28,700 -492 Descending Washington Center
Sun 08:55:34 PM 36.7617 -77.8008 27° Northeast 415 478 28,000 -403 Descending Washington Center
Sun 08:56:32 PM 36.8650 -77.7311 28° Northeast 415 478 27,900 -655 Descending Washington Center
Sun 08:57:33 PM 36.9706 -77.6664 26° Northeast 415 478 26,700 -1,240 Descending Washington Center
Sun 08:58:33 PM 37.0761 -77.5964 28° Northeast 415 478 25,400 -843 Descending Washington Center
Sun 08:59:34 PM 37.1794 -77.5314 27° Northeast 415 478 25,000 -504 Descending Washington Center
Sun 09:00:32 PM 37.2886 -77.4819 20° North 410 472 24,400 -814 Descending Washington Center
Sun 09:01:32 PM 37.3997 -77.4481 14° North 410 472 23,400 -694 Descending Washington Center
Sun 09:02:33 PM 37.5108 -77.4114 15° North 405 466 23,000 -202 Descending Washington Center
Sun 09:03:31 PM 37.6197 -77.3772 14° North 400 460 23,000  Level Washington Center
Sun 09:04:32 PM 37.7308 -77.3431 14° North 400 460 23,000  Level Washington Center
Sun 09:05:33 PM 37.8397 -77.3089 14° North 400 460 23,000  Level Washington Center
Sun 09:06:32 PM 37.9508 -77.2744 14° North 400 460 23,000 -446 Level Washington Center
Sun 09:07:34 PM 38.0597 -77.2428 13° North 395 455 22,100 -1,361 Descending Washington Center
Sun 09:08:31 PM 38.1750 -77.2081 13° North 395 455 20,300 -3,610 Descending Washington Center
Sun 09:09:32 PM 38.2669 -77.1758 15° North 390 449 15,000 -2,508 Descending Washington Center
Sun 09:10:33 PM 38.3675 -77.1408 15° North 379 436 15,200 -496 Climbing Washington Center
Sun 09:11:33 PM 38.4478 -77.0578 39° Northeast 365 420 14,000 -1,627 Descending Washington Center
Sun 09:12:31 PM 38.5219 -76.9689 43° Northeast 360 414 12,000 -1,475 Descending Washington Center
Sun 09:13:31 PM 38.5894 -76.8878 43° Northeast 345 397 11,100 -942 Descending Washington Center
Sun 09:14:32 PM 38.6508 -76.8119 44° Northeast 319 367 10,100 -992 Descending Washington Center
Sun 09:15:32 PM 38.7078 -76.7383 45° Northeast 301 346 9,100 -1,033 Descending Washington Center
Sun 09:16:34 PM 38.7461 -76.6536 60° Northeast 281 323 8,000 -1,377 Descending Washington Center
Sun 09:17:34 PM 38.8000 -76.5500 56° Northeast 279 321 6,300 -1,150 Descending Potomac TRACON
Sun 09:18:34 PM 38.8500 -76.5000 38° Northeast 255 293 5,700 -684 Descending Potomac TRACON
Sun 09:19:28 PM 38.9167 -76.4833 11° North 236 272 5,000 -895 Descending Potomac TRACON
Sun 09:20:28 PM 38.9667 -76.4667 15° North 227 261 4,000 -600 Descending Potomac TRACON
Sun 09:21:28 PM 39.0333 -76.4500 11° North 202 232 3,800 -500 Descending Potomac TRACON
Sun 09:22:28 PM 39.0833 -76.4500 360° North 186 214 3,000 -789 Descending Potomac TRACON
Sun 09:23:22 PM 39.1167 -76.4500 360° North 187 215 2,300 -526 Descending Potomac TRACON
Sun 09:24:22 PM 39.1667 -76.4833 333° Northwest 185 213 2,000 -250 Descending Potomac TRACON
Sun 09:25:22 PM 39.1667 -76.5500 270° West 173 199 1,800 -526 Descending Potomac TRACON
Sun 09:26:16 PM 39.1667 -76.6000 270° West 147 169 1,000 -889 Descending Potomac TRACON
Sun 09:28:00 PM 39.1667 -76.6667 288° West  Level FlightAware Approximate
Sun 09:35:00 PM 39.1754 -76.6683 288° West  Level Estimated
Sun 09:36:00 PM 39.1754 -76.6683 288° West  Level Estimated
Sun 09:37:00 PM 39.1754 -76.6683 288° West  Level Estimated

Login

Don't have an account? Register now (free) for customized features, flight alerts, and more!